Time;durP1;ratioP1;P1;durP2;ratioP2;P2;SDS_P1;SDS_P2;PMS_P1;PMS_P2;Temp;Humidity;BMP_temperature;BMP_pressure;BME280_temperature;BME280_humidity;BME280_pressure;Samples;Min_cycle;Max_cycle;Signal;HPM_P1;HPM_P2
2022/03/07 00:00:17;;;;;;;9.43;6.07;;;0.70;99.90;;;;;;5015247;28;20202;-69
2022/03/07 00:02:44;;;;;;;8.27;5.23;;;0.70;99.90;;;;;;5015168;28;20214;-68
2022/03/07 00:05:11;;;;;;;8.67;5.43;;;0.70;99.90;;;;;;5015587;28;20566;-69
2022/03/07 00:07:40;;;;;;;9.27;5.67;;;0.70;99.90;;;;;;5015093;28;20211;-68
2022/03/07 00:10:08;;;;;;;10.27;5.63;;;0.70;99.90;;;;;;5014923;28;20223;-68
2022/03/07 00:12:35;;;;;;;10.13;5.63;;;0.70;99.90;;;;;;5014880;28;20194;-68
2022/03/07 00:15:02;;;;;;;9.37;5.07;;;0.70;99.90;;;;;;5015343;28;20217;-68
2022/03/07 00:17:29;;;;;;;9.23;5.40;;;0.70;99.90;;;;;;5014971;28;20301;-68
2022/03/07 00:19:56;;;;;;;7.90;5.13;;;0.70;99.90;;;;;;5014911;28;20213;-69
2022/03/07 00:22:23;;;;;;;7.13;5.17;;;0.70;99.90;;;;;;5015152;28;20203;-67
2022/03/07 00:24:52;;;;;;;9.47;5.37;;;0.70;99.90;;;;;;5014982;28;20549;-68
2022/03/07 00:27:19;;;;;;;7.03;4.63;;;0.70;99.90;;;;;;5015133;28;20545;-69
2022/03/07 00:29:46;;;;;;;9.00;5.00;;;0.70;99.90;;;;;;5014528;28;20234;-68
2022/03/07 00:32:14;;;;;;;6.50;4.60;;;0.60;99.90;;;;;;5015003;28;20210;-69
2022/03/07 00:34:41;;;;;;;8.50;4.93;;;0.60;99.90;;;;;;5014862;28;20699;-70
2022/03/07 00:37:08;;;;;;;5.80;4.37;;;0.60;99.90;;;;;;5014634;28;20218;-70
2022/03/07 00:39:35;;;;;;;7.07;4.33;;;0.60;99.90;;;;;;5014470;28;20202;-68
2022/03/07 00:42:04;;;;;;;8.13;4.80;;;0.60;99.90;;;;;;5014647;28;20207;-68
2022/03/07 00:44:31;;;;;;;8.13;4.63;;;0.60;99.90;;;;;;5014708;28;20727;-68
2022/03/07 00:46:59;;;;;;;7.73;4.20;;;0.60;99.90;;;;;;5014768;28;20210;-68
2022/03/07 00:49:26;;;;;;;6.80;4.33;;;0.60;99.90;;;;;;5013730;28;20227;-69
2022/03/07 00:51:53;;;;;;;6.43;4.23;;;0.50;99.90;;;;;;5014705;28;20585;-69
2022/03/07 00:54:20;;;;;;;6.30;4.20;;;0.60;99.90;;;;;;5014391;28;20201;-68
2022/03/07 00:56:47;;;;;;;7.37;4.43;;;0.60;99.90;;;;;;5014338;28;20257;-72
2022/03/07 00:59:16;;;;;;;7.63;4.60;;;0.60;99.90;;;;;;5014273;28;20207;-68
2022/03/07 01:01:43;;;;;;;8.17;4.90;;;0.60;99.90;;;;;;5014151;28;20218;-68
2022/03/07 01:04:10;;;;;;;7.10;4.37;;;0.70;99.90;;;;;;5014495;28;20203;-69
2022/03/07 01:06:37;;;;;;;7.30;4.33;;;0.70;99.90;;;;;;5013812;28;20217;-68
2022/03/07 01:09:04;;;;;;;7.70;4.33;;;0.60;99.90;;;;;;5013986;28;20227;-68
2022/03/07 01:11:32;;;;;;;5.80;4.27;;;0.70;99.90;;;;;;5013782;28;20601;-68
2022/03/07 01:13:59;;;;;;;6.00;4.30;;;0.60;99.90;;;;;;5014027;28;20211;-68
2022/03/07 01:16:27;;;;;;;8.37;4.70;;;0.60;99.90;;;;;;5014021;28;20218;-68
2022/03/07 01:18:54;;;;;;;7.07;4.53;;;0.60;99.90;;;;;;5013875;28;20214;-69
2022/03/07 01:21:22;;;;;;;8.33;4.67;;;0.50;99.90;;;;;;5013954;28;20226;-69
2022/03/07 01:23:49;;;;;;;8.37;4.63;;;0.50;99.90;;;;;;5013932;28;20203;-68
2022/03/07 01:26:16;;;;;;;7.33;4.80;;;0.50;99.90;;;;;;5014545;28;20206;-69
2022/03/07 01:28:43;;;;;;;10.03;4.83;;;0.50;99.90;;;;;;5014461;28;20202;-68
2022/03/07 01:31:10;;;;;;;6.93;4.60;;;0.60;99.90;;;;;;5014509;28;20199;-70
2022/03/07 01:33:39;;;;;;;7.30;4.77;;;0.60;99.90;;;;;;5013739;28;20218;-69
2022/03/07 01:36:06;;;;;;;7.93;5.10;;;0.60;99.90;;;;;;5013806;28;20301;-69
2022/03/07 01:38:33;;;;;;;7.67;4.63;;;0.60;99.90;;;;;;5013648;28;20230;-68
2022/03/07 01:41:00;;;;;;;7.40;4.63;;;0.60;99.90;;;;;;5013747;28;20209;-69
2022/03/07 01:43:29;;;;;;;7.27;4.63;;;0.60;99.90;;;;;;5013245;28;20221;-69
2022/03/07 01:45:56;;;;;;;8.17;4.73;;;0.60;99.90;;;;;;5013651;28;20676;-68
2022/03/07 01:48:23;;;;;;;6.67;4.30;;;0.60;99.90;;;;;;5013141;28;20216;-70
2022/03/07 01:50:52;;;;;;;6.13;4.43;;;0.60;99.90;;;;;;5013469;28;20234;-67
2022/03/07 01:53:22;;;;;;;7.43;4.37;;;0.60;99.90;;;;;;5013410;28;20290;-69
2022/03/07 01:55:49;;;;;;;6.30;4.20;;;0.50;99.90;;;;;;5013742;28;20210;-69
2022/03/07 01:58:16;;;;;;;5.70;4.13;;;0.50;99.90;;;;;;5013179;28;20585;-69
2022/03/07 02:00:43;;;;;;;6.90;4.57;;;0.50;99.90;;;;;;5012523;28;20203;-69
2022/03/07 02:03:10;;;;;;;7.13;4.20;;;0.50;99.90;;;;;;5012643;28;20222;-68
2022/03/07 02:05:38;;;;;;;6.20;4.40;;;0.50;99.90;;;;;;5012775;28;20206;-68
2022/03/07 02:08:07;;;;;;;5.87;4.20;;;0.50;99.90;;;;;;5012953;28;20207;-70
2022/03/07 02:10:34;;;;;;;5.93;4.40;;;0.50;99.90;;;;;;5012759;28;20592;-68
2022/03/07 02:13:02;;;;;;;7.93;4.70;;;0.50;99.90;;;;;;5013135;28;20209;-69
2022/03/07 02:15:29;;;;;;;6.00;4.27;;;0.50;99.90;;;;;;5012842;28;20202;-68
2022/03/07 02:17:56;;;;;;;7.03;4.40;;;0.50;99.90;;;;;;5012793;28;20227;-69
2022/03/07 02:20:23;;;;;;;6.90;4.47;;;0.50;99.90;;;;;;5013228;28;20202;-69
2022/03/07 02:22:52;;;;;;;7.13;4.43;;;0.50;99.90;;;;;;5012933;28;20305;-69
2022/03/07 02:25:19;;;;;;;6.57;4.33;;;0.40;99.90;;;;;;5012599;28;20199;-68
2022/03/07 02:27:46;;;;;;;8.70;5.13;;;0.40;99.90;;;;;;5012926;28;20611;-70
2022/03/07 02:30:13;;;;;;;8.93;5.00;;;0.40;99.90;;;;;;5012357;28;20229;-69
2022/03/07 02:32:42;;;;;;;6.80;4.50;;;0.40;99.90;;;;;;5012464;28;20206;-69
2022/03/07 02:35:12;;;;;;;6.90;4.57;;;0.40;99.90;;;;;;5012802;28;20261;-68
2022/03/07 02:37:41;;;;;;;9.53;5.20;;;0.30;99.90;;;;;;5012569;28;20292;-69
2022/03/07 02:40:11;;;;;;;7.23;5.17;;;0.30;99.90;;;;;;5012545;28;20688;-69
2022/03/07 02:42:38;;;;;;;7.30;4.90;;;0.30;99.90;;;;;;5012505;28;20215;-69
2022/03/07 02:45:06;;;;;;;7.13;4.97;;;0.30;99.90;;;;;;5012360;28;20230;-68
2022/03/07 02:47:33;;;;;;;7.17;5.03;;;0.40;99.90;;;;;;5012225;28;20246;-69
2022/03/07 02:50:00;;;;;;;7.73;4.57;;;0.40;99.90;;;;;;5012165;28;20226;-69
2022/03/07 02:52:27;;;;;;;5.70;4.30;;;0.40;99.90;;;;;;5012038;28;20226;-70
2022/03/07 02:54:55;;;;;;;6.03;4.50;;;0.40;99.90;;;;;;5012425;28;20245;-69
2022/03/07 02:57:23;;;;;;;7.40;4.53;;;0.40;99.90;;;;;;5012202;28;20222;-68
2022/03/07 02:59:50;;;;;;;7.60;4.90;;;0.40;99.90;;;;;;5012029;28;20209;-69
2022/03/07 03:02:18;;;;;;;6.73;4.83;;;0.40;99.90;;;;;;5012241;28;20660;-69
2022/03/07 03:04:46;;;;;;;8.97;5.03;;;0.40;99.90;;;;;;5012030;28;20238;-68
2022/03/07 03:07:13;;;;;;;7.97;5.23;;;0.30;99.90;;;;;;5012426;28;20556;-69
2022/03/07 03:09:41;;;;;;;6.03;4.40;;;0.30;99.90;;;;;;5011836;28;20230;-69
2022/03/07 03:12:10;;;;;;;7.60;5.03;;;0.40;99.90;;;;;;5011424;28;20242;-68
2022/03/07 03:14:40;;;;;;;6.53;4.57;;;0.40;99.90;;;;;;5011914;28;20293;-70
2022/03/07 03:17:08;;;;;;;7.53;5.13;;;0.40;99.90;;;;;;5012093;28;20531;-68
2022/03/07 03:19:35;;;;;;;7.27;5.20;;;0.40;99.90;;;;;;5012184;28;20607;-68
2022/03/07 03:22:02;;;;;;;8.40;5.57;;;0.40;99.90;;;;;;5012288;28;20661;-68
2022/03/07 03:24:29;;;;;;;7.40;4.97;;;0.40;99.90;;;;;;5011724;28;20219;-68
2022/03/07 03:26:56;;;;;;;9.87;5.77;;;0.40;99.90;;;;;;5011823;28;20207;-68
2022/03/07 03:29:23;;;;;;;7.50;4.73;;;0.40;99.90;;;;;;5011846;28;20979;-68
2022/03/07 03:31:52;;;;;;;7.33;4.80;;;0.40;99.90;;;;;;5012099;28;20676;-69
2022/03/07 03:34:19;;;;;;;9.20;5.30;;;0.40;99.90;;;;;;5011539;28;20210;-69
2022/03/07 03:36:46;;;;;;;7.77;5.20;;;0.30;99.90;;;;;;5012011;28;20213;-68
2022/03/07 03:39:14;;;;;;;7.80;5.03;;;0.40;99.90;;;;;;5011871;28;20203;-68
2022/03/07 03:41:41;;;;;;;6.30;5.03;;;0.30;99.90;;;;;;5011709;28;20260;-69
2022/03/07 03:44:08;;;;;;;6.97;4.90;;;0.30;99.90;;;;;;5011515;28;20237;-69
2022/03/07 03:46:37;;;;;;;6.77;4.77;;;0.30;99.90;;;;;;5011772;28;20198;-69
2022/03/07 03:49:05;;;;;;;7.70;5.07;;;0.40;99.90;;;;;;5011818;28;20238;-69
2022/03/07 03:51:34;;;;;;;6.40;4.90;;;0.40;99.90;;;;;;5011782;28;20612;-69
2022/03/07 03:54:01;;;;;;;7.60;5.10;;;0.40;99.90;;;;;;5011786;28;20714;-68
2022/03/07 03:56:28;;;;;;;9.87;5.77;;;0.40;99.90;;;;;;5011458;28;20230;-68
2022/03/07 03:58:56;;;;;;;6.70;4.90;;;0.40;99.90;;;;;;5012127;28;20624;-68
2022/03/07 04:01:23;;;;;;;8.77;5.03;;;0.30;99.90;;;;;;5011743;28;20213;-68
2022/03/07 04:03:50;;;;;;;8.80;5.43;;;0.30;99.90;;;;;;5011503;28;20202;-68
2022/03/07 04:06:18;;;;;;;9.20;4.93;;;0.40;99.90;;;;;;5011544;28;20704;-69
2022/03/07 04:08:47;;;;;;;10.23;5.60;;;0.30;99.90;;;;;;5011785;28;20206;-69
2022/03/07 04:11:14;;;;;;;9.57;5.77;;;0.30;99.90;;;;;;5011096;28;20274;-69
2022/03/07 04:13:41;;;;;;;9.40;5.70;;;0.30;99.90;;;;;;5011673;28;20232;-69
2022/03/07 04:16:10;;;;;;;9.33;5.83;;;0.30;99.90;;;;;;5011285;28;20297;-69
2022/03/07 04:18:37;;;;;;;11.00;6.17;;;0.30;99.90;;;;;;5011692;28;20222;-68
2022/03/07 04:21:04;;;;;;;10.20;5.67;;;0.30;99.90;;;;;;5011317;28;20207;-69
2022/03/07 04:23:33;;;;;;;10.27;5.80;;;0.40;99.90;;;;;;5011597;28;20683;-68
2022/03/07 04:26:00;;;;;;;10.80;6.30;;;0.30;99.90;;;;;;5013886;28;20210;-68
2022/03/07 04:28:27;;;;;;;11.40;6.33;;;0.40;99.90;;;;;;5015037;28;20338;-69
2022/03/07 04:30:54;;;;;;;9.27;6.20;;;0.40;99.90;;;;;;5014934;28;20222;-70
2022/03/07 04:33:22;;;;;;;12.60;6.07;;;0.40;99.90;;;;;;5014691;28;20206;-68
2022/03/07 04:35:49;;;;;;;9.00;5.90;;;0.40;99.90;;;;;;5014596;28;20241;-68
2022/03/07 04:38:16;;;;;;;11.50;6.00;;;0.50;99.90;;;;;;5014750;28;20563;-69
2022/03/07 04:40:45;;;;;;;9.03;6.07;;;0.50;99.90;;;;;;5014615;28;20217;-68
2022/03/07 04:43:12;;;;;;;9.30;6.10;;;0.50;99.90;;;;;;5014527;28;20210;-68
2022/03/07 04:45:39;;;;;;;9.77;6.60;;;0.40;99.90;;;;;;5014765;28;20206;-68
2022/03/07 04:48:06;;;;;;;8.97;5.90;;;0.40;99.90;;;;;;5014447;28;20229;-69
2022/03/07 04:50:33;;;;;;;9.57;6.13;;;0.50;99.90;;;;;;5014298;28;20227;-68
2022/03/07 04:53:01;;;;;;;8.83;5.87;;;0.50;99.90;;;;;;5014301;28;20215;-68
2022/03/07 04:55:28;;;;;;;11.07;5.97;;;0.50;99.90;;;;;;5014508;28;20207;-69
2022/03/07 04:57:56;;;;;;;8.23;5.63;;;0.50;99.90;;;;;;5014011;28;20225;-69
2022/03/07 05:00:23;;;;;;;9.47;6.40;;;0.50;99.90;;;;;;5014439;28;20679;-69
2022/03/07 05:02:51;;;;;;;11.53;5.50;;;0.50;99.90;;;;;;5014492;28;20539;-69
2022/03/07 05:05:18;;;;;;;8.33;5.63;;;0.50;99.90;;;;;;5014290;28;20260;-68
2022/03/07 05:07:45;;;;;;;8.80;5.60;;;0.50;99.90;;;;;;5014016;28;20203;-68
2022/03/07 05:10:13;;;;;;;7.37;5.20;;;0.50;99.90;;;;;;5013685;28;20235;-69
2022/03/07 05:12:40;;;;;;;9.43;5.77;;;0.50;99.90;;;;;;5014258;28;20250;-69
2022/03/07 05:15:09;;;;;;;10.63;5.53;;;0.60;99.90;;;;;;5014234;28;20208;-69
2022/03/07 05:17:42;;;;;;;10.20;6.07;;;0.50;99.90;;;;;;5014294;28;20302;-69
2022/03/07 05:20:11;;;;;;;10.07;5.50;;;0.60;99.90;;;;;;5013635;28;20191;-68
2022/03/07 05:22:38;;;;;;;9.03;6.03;;;0.60;99.90;;;;;;5014240;28;20211;-68
2022/03/07 05:25:06;;;;;;;8.97;5.87;;;0.60;99.90;;;;;;5013773;28;20672;-69
2022/03/07 05:27:33;;;;;;;9.33;6.10;;;0.60;99.90;;;;;;5013855;28;20203;-68
2022/03/07 05:30:01;;;;;;;10.13;5.70;;;0.60;99.90;;;;;;5013597;28;20651;-68
2022/03/07 05:32:29;;;;;;;9.50;5.93;;;0.70;99.90;;;;;;5013883;28;20650;-68
2022/03/07 05:34:56;;;;;;;12.77;6.37;;;0.70;99.90;;;;;;5013361;28;20213;-68
2022/03/07 05:37:23;;;;;;;13.77;6.43;;;0.70;99.90;;;;;;5013615;28;20213;-69
2022/03/07 05:39:51;;;;;;;12.43;6.70;;;0.70;99.90;;;;;;5013451;28;20545;-69
2022/03/07 05:42:18;;;;;;;10.07;6.30;;;0.70;99.90;;;;;;5013650;28;20206;-68
2022/03/07 05:44:45;;;;;;;11.47;6.33;;;0.70;99.90;;;;;;5013316;28;20214;-69
2022/03/07 05:47:12;;;;;;;11.60;7.37;;;0.70;99.90;;;;;;5013492;28;20535;-69
2022/03/07 05:49:41;;;;;;;14.80;7.43;;;0.70;99.90;;;;;;5013206;28;20211;-70
2022/03/07 05:52:08;;;;;;;13.73;7.00;;;0.80;99.90;;;;;;5013195;28;20696;-68
2022/03/07 05:54:35;;;;;;;13.93;7.50;;;0.70;99.90;;;;;;5013153;28;20214;-68
2022/03/07 05:57:02;;;;;;;12.70;7.23;;;0.80;99.90;;;;;;5013208;28;20607;-69
2022/03/07 05:59:29;;;;;;;12.60;7.30;;;0.80;99.90;;;;;;5013309;28;20206;-69
2022/03/07 06:01:57;;;;;;;11.80;7.37;;;0.80;99.90;;;;;;5012852;28;20679;-68
2022/03/07 06:04:24;;;;;;;14.63;7.67;;;0.80;99.90;;;;;;5013197;28;20207;-70
2022/03/07 06:06:52;;;;;;;15.30;7.63;;;0.90;99.90;;;;;;5013229;28;20586;-69
2022/03/07 06:09:20;;;;;;;13.60;8.13;;;0.90;99.90;;;;;;5013247;28;20665;-69
2022/03/07 06:11:47;;;;;;;16.67;8.70;;;0.90;99.90;;;;;;5012452;28;20234;-69
2022/03/07 06:14:14;;;;;;;16.43;9.17;;;0.90;99.90;;;;;;5013010;28;20539;-71
2022/03/07 06:16:41;;;;;;;18.03;10.00;;;1.00;99.90;;;;;;5012969;28;20687;-69
2022/03/07 06:19:08;;;;;;;18.50;10.17;;;1.00;99.90;;;;;;5012979;28;20218;-70
2022/03/07 06:21:35;;;;;;;19.23;10.30;;;1.00;99.90;;;;;;5012793;28;20202;-69
2022/03/07 06:24:04;;;;;;;17.00;10.50;;;1.00;99.90;;;;;;5012499;28;20214;-69
2022/03/07 06:26:32;;;;;;;19.40;10.87;;;1.10;99.90;;;;;;5013090;28;20214;-69
2022/03/07 06:29:00;;;;;;;18.47;10.90;;;1.10;99.90;;;;;;5012574;28;21029;-69
2022/03/07 06:31:27;;;;;;;16.30;10.07;;;1.10;99.90;;;;;;5012745;28;20317;-69
2022/03/07 06:33:55;;;;;;;18.40;10.10;;;1.10;99.90;;;;;;5012321;28;20218;-69
2022/03/07 06:36:22;;;;;;;16.80;10.00;;;1.10;99.90;;;;;;5012289;28;20216;-69
2022/03/07 06:38:49;;;;;;;15.13;9.60;;;1.10;99.90;;;;;;5012537;28;20207;-68
2022/03/07 06:41:18;;;;;;;16.87;9.83;;;1.10;99.90;;;;;;5012946;28;20203;-68
2022/03/07 06:43:45;;;;;;;14.13;9.00;;;1.10;99.90;;;;;;5013269;28;20558;-69
2022/03/07 06:46:12;;;;;;;15.47;9.47;;;1.20;99.90;;;;;;5012834;28;20601;-68
2022/03/07 06:48:39;;;;;;;15.20;9.00;;;1.20;99.90;;;;;;5011794;28;20215;-69
2022/03/07 06:51:06;;;;;;;15.00;8.87;;;1.20;99.90;;;;;;5012510;28;20654;-69
2022/03/07 06:53:34;;;;;;;14.93;8.73;;;1.20;99.90;;;;;;5011928;28;20218;-68
2022/03/07 06:56:01;;;;;;;16.23;7.63;;;1.20;99.90;;;;;;5012022;28;20281;-68
2022/03/07 06:58:30;;;;;;;14.50;7.63;;;1.30;99.90;;;;;;5012391;28;20661;-68
2022/03/07 07:00:57;;;;;;;15.57;7.80;;;1.30;99.90;;;;;;5012052;28;20567;-69
2022/03/07 07:03:24;;;;;;;12.97;7.20;;;1.40;99.90;;;;;;5011900;28;20210;-68
2022/03/07 07:05:51;;;;;;;13.80;7.57;;;1.40;99.90;;;;;;5011924;28;20214;-69
2022/03/07 07:08:18;;;;;;;14.80;7.63;;;1.40;99.90;;;;;;5012502;28;20260;-69
2022/03/07 07:10:46;;;;;;;14.60;7.83;;;1.50;99.90;;;;;;5011743;28;20678;-70
2022/03/07 07:13:14;;;;;;;12.63;7.43;;;1.50;99.90;;;;;;5011735;28;20213;-69
2022/03/07 07:15:43;;;;;;;14.30;8.00;;;1.50;99.90;;;;;;5012088;28;20207;-69
2022/03/07 07:18:10;;;;;;;15.77;7.50;;;1.60;99.90;;;;;;5011860;28;20206;-69
2022/03/07 07:20:37;;;;;;;11.73;7.10;;;1.60;99.90;;;;;;5012006;28;20203;-68
2022/03/07 07:23:04;;;;;;;13.30;7.20;;;1.60;99.90;;;;;;5011881;28;20302;-68
2022/03/07 07:25:31;;;;;;;12.60;7.00;;;1.70;99.90;;;;;;5011912;28;20206;-69
2022/03/07 07:27:59;;;;;;;14.23;7.00;;;1.60;99.90;;;;;;5011644;28;20642;-69
2022/03/07 07:30:26;;;;;;;12.63;6.80;;;1.60;99.90;;;;;;5011889;28;20206;-68
2022/03/07 07:32:54;;;;;;;13.57;7.47;;;1.60;99.90;;;;;;5011506;28;20226;-68
2022/03/07 07:35:22;;;;;;;15.50;7.83;;;1.60;99.90;;;;;;5011910;28;20207;-68
2022/03/07 07:37:49;;;;;;;14.50;7.00;;;1.60;99.90;;;;;;5011561;28;20221;-69
2022/03/07 07:40:16;;;;;;;15.33;7.60;;;1.70;99.90;;;;;;5011403;28;20207;-69
2022/03/07 07:42:43;;;;;;;14.33;7.53;;;1.80;99.90;;;;;;5011260;28;20211;-71
2022/03/07 07:45:12;;;;;;;10.70;6.60;;;1.80;99.90;;;;;;5011786;28;20567;-69
2022/03/07 07:47:39;;;;;;;12.37;7.03;;;1.90;99.90;;;;;;5011716;28;20202;-68
2022/03/07 07:50:09;;;;;;;13.27;6.97;;;1.90;99.90;;;;;;5011482;28;20211;-71
2022/03/07 07:52:37;;;;;;;15.50;7.07;;;2.00;99.90;;;;;;5011321;28;20211;-68
2022/03/07 07:55:06;;;;;;;13.57;7.10;;;1.90;99.90;;;;;;5011658;28;20207;-68
2022/03/07 07:57:33;;;;;;;11.17;7.03;;;2.00;99.90;;;;;;5011481;28;20230;-68
2022/03/07 08:00:00;;;;;;;14.30;8.27;;;2.00;99.90;;;;;;5013280;28;20565;-70
2022/03/07 08:02:27;;;;;;;13.80;7.43;;;2.00;99.90;;;;;;5015095;28;20199;-70
2022/03/07 08:04:54;;;;;;;12.47;7.47;;;1.90;99.90;;;;;;5015110;28;20237;-68
2022/03/07 08:07:23;;;;;;;12.60;7.40;;;2.00;99.90;;;;;;5015039;28;20207;-69
2022/03/07 08:09:50;;;;;;;14.63;8.27;;;2.00;99.90;;;;;;5014983;28;20206;-69
2022/03/07 08:12:18;;;;;;;12.30;7.67;;;2.00;99.90;;;;;;5015548;28;20254;-70
2022/03/07 08:14:45;;;;;;;14.27;8.00;;;2.10;99.90;;;;;;5015224;28;20572;-69
2022/03/07 08:17:13;;;;;;;13.97;7.47;;;2.10;99.90;;;;;;5015230;28;20211;-69
2022/03/07 08:19:40;;;;;;;15.13;7.83;;;2.20;99.90;;;;;;5015164;28;20207;-70
2022/03/07 08:22:07;;;;;;;12.70;7.53;;;2.20;99.90;;;;;;5014872;28;20214;-69
2022/03/07 08:24:36;;;;;;;12.40;7.00;;;2.20;99.90;;;;;;5014929;28;20229;-68
2022/03/07 08:27:04;;;;;;;11.43;7.13;;;2.20;99.90;;;;;;5014997;28;20211;-68
2022/03/07 08:29:31;;;;;;;13.10;7.83;;;2.10;99.90;;;;;;5014991;28;20752;-69
2022/03/07 08:31:59;;;;;;;18.70;8.10;;;2.10;99.90;;;;;;5014646;28;20223;-68
2022/03/07 08:34:26;;;;;;;14.13;7.70;;;2.00;99.90;;;;;;5014830;28;20207;-69
2022/03/07 08:36:53;;;;;;;11.47;6.70;;;2.10;99.90;;;;;;5014533;28;20206;-68
2022/03/07 08:39:20;;;;;;;10.17;6.40;;;2.10;99.90;;;;;;5014920;28;20206;-69
2022/03/07 08:41:48;;;;;;;16.87;7.67;;;2.10;99.90;;;;;;5014896;28;20686;-68
2022/03/07 08:44:16;;;;;;;11.93;6.17;;;2.10;99.90;;;;;;5014696;28;20207;-69
2022/03/07 08:46:43;;;;;;;9.50;6.50;;;2.10;99.90;;;;;;5014532;28;20213;-69
2022/03/07 08:49:10;;;;;;;14.87;7.57;;;2.10;99.90;;;;;;5014586;28;20571;-68
2022/03/07 08:51:39;;;;;;;10.70;6.90;;;2.10;99.90;;;;;;5013966;28;20229;-69
2022/03/07 08:54:06;;;;;;;12.27;6.80;;;2.10;99.90;;;;;;5014456;28;20202;-69
2022/03/07 08:56:33;;;;;;;16.70;8.57;;;2.10;99.90;;;;;;5014202;28;20743;-68
2022/03/07 08:59:02;;;;;;;18.57;9.23;;;2.00;99.90;;;;;;5014149;28;20218;-69
2022/03/07 09:01:30;;;;;;;17.60;8.70;;;2.10;99.90;;;;;;5014088;28;20618;-69
2022/03/07 09:03:57;;;;;;;16.60;8.10;;;2.10;99.90;;;;;;5014378;28;20207;-69
2022/03/07 09:06:24;;;;;;;11.90;7.60;;;2.20;99.90;;;;;;5014500;28;20768;-68
2022/03/07 09:08:51;;;;;;;19.63;7.97;;;2.30;99.90;;;;;;5014043;28;20207;-68
2022/03/07 09:11:18;;;;;;;17.63;9.27;;;2.30;99.90;;;;;;5013288;28;20603;-68
2022/03/07 09:13:45;;;;;;;16.73;8.50;;;2.30;99.90;;;;;;5013992;28;20211;-69
2022/03/07 09:16:14;;;;;;;14.23;7.80;;;2.40;99.90;;;;;;5013941;28;20221;-69
2022/03/07 09:18:42;;;;;;;15.40;8.37;;;2.40;99.90;;;;;;5014052;28;20203;-69
2022/03/07 09:21:09;;;;;;;29.87;12.77;;;2.40;99.90;;;;;;5014040;28;20576;-69
2022/03/07 09:23:38;;;;;;;23.27;10.10;;;2.40;99.90;;;;;;5013552;28;20207;-68
2022/03/07 09:26:06;;;;;;;20.93;9.33;;;2.20;99.90;;;;;;5013865;28;20206;-69
2022/03/07 09:28:34;;;;;;;20.50;9.57;;;2.20;99.90;;;;;;5013815;28;20584;-69
2022/03/07 09:31:01;;;;;;;22.33;10.50;;;2.20;99.90;;;;;;5013797;28;20260;-69
2022/03/07 09:33:30;;;;;;;23.97;9.60;;;2.20;99.90;;;;;;5013307;28;20227;-69
2022/03/07 09:35:57;;;;;;;22.00;9.00;;;2.20;99.90;;;;;;5013511;28;20211;-69
2022/03/07 09:38:24;;;;;;;14.23;7.70;;;2.30;99.90;;;;;;5013344;28;20214;-68
2022/03/07 09:40:53;;;;;;;11.93;7.00;;;2.40;99.90;;;;;;5013414;28;20203;-68
2022/03/07 09:43:20;;;;;;;13.53;6.40;;;2.40;99.90;;;;;;5013277;28;20203;-68
2022/03/07 09:45:47;;;;;;;15.00;7.70;;;2.40;99.90;;;;;;5013515;28;20679;-69
2022/03/07 09:48:15;;;;;;;20.37;9.30;;;2.40;99.90;;;;;;5013128;28;20669;-69
2022/03/07 09:50:44;;;;;;;19.57;9.63;;;2.30;99.90;;;;;;5013573;28;20678;-69
2022/03/07 09:53:13;;;;;;;20.17;9.63;;;2.30;99.90;;;;;;5013695;28;20237;-68
2022/03/07 09:55:40;;;;;;;18.77;10.83;;;2.30;99.90;;;;;;5013728;28;20292;-69
2022/03/07 09:58:08;;;;;;;19.87;10.40;;;2.40;99.90;;;;;;5013138;28;20449;-69
2022/03/07 10:00:38;;;;;;;20.83;12.77;;;2.50;99.90;;;;;;5013094;28;20256;-69
2022/03/07 10:03:07;;;;;;;20.90;12.30;;;2.50;99.90;;;;;;5013226;28;20688;-69
2022/03/07 10:05:36;;;;;;;18.63;10.63;;;2.50;99.90;;;;;;5013029;28;20206;-68
2022/03/07 10:08:05;;;;;;;17.83;9.73;;;2.40;99.90;;;;;;5013277;28;20203;-69
2022/03/07 10:10:34;;;;;;;13.40;8.43;;;2.40;99.90;;;;;;5012613;28;20297;-69
2022/03/07 10:13:06;;;;;;;18.70;11.20;;;2.40;99.90;;;;;;5012845;28;20233;-68
2022/03/07 10:15:33;;;;;;;17.10;9.20;;;2.30;99.90;;;;;;5012667;28;20198;-70
2022/03/07 10:18:00;;;;;;;12.60;7.10;;;2.20;99.90;;;;;;5013162;28;20614;-69
2022/03/07 10:20:28;;;;;;;10.83;6.90;;;2.20;99.90;;;;;;5012470;28;20210;-68
2022/03/07 10:22:56;;;;;;;13.47;7.23;;;2.10;99.90;;;;;;5012225;28;20657;-69
2022/03/07 10:25:26;;;;;;;11.83;6.57;;;2.10;99.90;;;;;;5012519;28;20206;-69
2022/03/07 10:27:54;;;;;;;12.03;7.03;;;2.10;99.90;;;;;;5012849;28;20564;-68
2022/03/07 10:30:24;;;;;;;12.20;7.53;;;2.00;99.90;;;;;;5012358;28;20217;-69
2022/03/07 10:32:56;;;;;;;13.43;8.00;;;2.00;99.90;;;;;;5012775;28;20238;-69
2022/03/07 10:35:26;;;;;;;14.03;8.53;;;2.00;99.90;;;;;;5012313;28;20211;-69
2022/03/07 10:37:57;;;;;;;15.83;9.20;;;2.10;99.90;;;;;;5012646;28;20261;-70
2022/03/07 10:40:27;;;;;;;16.30;8.43;;;2.20;99.90;;;;;;5012187;28;20199;-68
2022/03/07 10:42:55;;;;;;;15.57;8.57;;;2.10;99.90;;;;;;5012671;28;20563;-69
2022/03/07 10:45:23;;;;;;;12.47;7.90;;;2.20;99.90;;;;;;5012325;28;20202;-69
2022/03/07 10:47:56;;;;;;;11.07;7.00;;;2.20;99.90;;;;;;5012263;28;20213;-69
2022/03/07 10:50:23;;;;;;;12.60;6.50;;;2.10;99.90;;;;;;5012167;28;20240;-69
2022/03/07 10:52:52;;;;;;;12.53;7.30;;;2.10;99.90;;;;;;5012160;28;20235;-69
2022/03/07 10:55:27;;;;;;;16.10;9.00;;;2.10;99.90;;;;;;5012308;28;20304;-68
2022/03/07 10:58:04;;;;;;;13.10;8.57;;;2.10;99.90;;;;;;5012544;28;20201;-69
2022/03/07 11:00:31;;;;;;;15.30;8.70;;;2.10;99.90;;;;;;5012465;28;20337;-69
2022/03/07 11:02:58;;;;;;;14.33;7.70;;;1.90;99.90;;;;;;5012140;28;20203;-69
2022/03/07 11:05:25;;;;;;;14.57;8.23;;;1.90;99.90;;;;;;5011967;28;20207;-69
2022/03/07 11:07:53;;;;;;;12.77;6.77;;;1.90;99.90;;;;;;5012044;28;20216;-69
2022/03/07 11:10:20;;;;;;;13.67;7.20;;;1.80;99.90;;;;;;5012064;28;20245;-69
2022/03/07 11:12:49;;;;;;;13.00;7.13;;;1.80;99.90;;;;;;5011948;28;20222;-69
2022/03/07 11:15:18;;;;;;;10.63;6.73;;;1.90;99.90;;;;;;5012165;28;20691;-69
2022/03/07 11:17:47;;;;;;;11.23;6.20;;;1.90;99.90;;;;;;5011940;28;20226;-69
2022/03/07 11:20:17;;;;;;;7.40;5.40;;;1.90;99.90;;;;;;5011866;28;20282;-69
2022/03/07 11:22:45;;;;;;;11.07;5.83;;;2.00;99.90;;;;;;5012291;28;20529;-69
2022/03/07 11:25:16;;;;;;;10.40;5.37;;;2.10;99.90;;;;;;5012091;28;20202;-68
2022/03/07 11:27:44;;;;;;;11.17;6.40;;;2.10;99.90;;;;;;5012013;28;20556;-69
2022/03/07 11:30:18;;;;;;;10.10;6.10;;;2.20;99.90;;;;;;5011809;28;20253;-68
2022/03/07 11:32:45;;;;;;;8.57;5.70;;;2.30;99.90;;;;;;5012358;28;20237;-69
2022/03/07 11:35:13;;;;;;;8.33;5.43;;;2.40;99.90;;;;;;5015518;28;20225;-69
2022/03/07 11:37:41;;;;;;;13.30;6.43;;;2.40;99.90;;;;;;5016047;28;20301;-69
2022/03/07 11:40:20;;;;;;;11.47;6.70;;;2.50;99.90;;;;;;5015545;28;20301;-68
2022/03/07 11:42:48;;;;;;;14.93;6.80;;;2.40;99.90;;;;;;5015579;28;20214;-69
2022/03/07 11:45:18;;;;;;;12.20;6.70;;;2.40;99.90;;;;;;5015853;28;20571;-69
2022/03/07 11:47:46;;;;;;;11.73;6.60;;;2.30;99.90;;;;;;5015940;28;20650;-69
2022/03/07 11:50:18;;;;;;;12.97;6.63;;;2.30;99.90;;;;;;5015743;28;20210;-68
2022/03/07 11:52:46;;;;;;;8.53;5.47;;;2.20;99.90;;;;;;5015601;28;20211;-69
2022/03/07 11:55:16;;;;;;;10.53;5.97;;;2.10;99.90;;;;;;5015540;28;20226;-70
2022/03/07 11:57:45;;;;;;;12.53;6.37;;;2.10;99.90;;;;;;5015896;28;20211;-70
2022/03/07 12:00:17;;;;;;;11.33;5.80;;;2.10;99.90;;;;;;5015161;28;20215;-69
2022/03/07 12:02:47;;;;;;;8.60;5.43;;;2.00;99.90;;;;;;5015526;28;20194;-69
2022/03/07 12:05:26;;;;;;;9.87;5.80;;;2.00;99.90;;;;;;5015577;28;20210;-68
2022/03/07 12:07:54;;;;;;;11.33;6.10;;;2.00;99.90;;;;;;5015081;28;20203;-69
2022/03/07 12:10:21;;;;;;;10.17;5.73;;;2.00;99.90;;;;;;5015238;28;20713;-68
2022/03/07 12:12:48;;;;;;;10.57;5.97;;;1.90;99.90;;;;;;5015016;28;20317;-69
2022/03/07 12:15:17;;;;;;;11.50;5.93;;;1.90;99.90;;;;;;5014839;28;20207;-68
2022/03/07 12:17:52;;;;;;;13.60;7.50;;;1.90;99.90;;;;;;5015043;28;20210;-69
2022/03/07 12:20:19;;;;;;;16.13;6.87;;;1.90;99.90;;;;;;5015378;28;20198;-69
2022/03/07 12:22:46;;;;;;;12.83;6.80;;;1.90;99.90;;;;;;5015102;28;20206;-69
2022/03/07 12:25:14;;;;;;;10.63;6.43;;;1.90;99.90;;;;;;5014686;28;20206;-69
2022/03/07 12:27:41;;;;;;;11.07;5.73;;;1.80;99.90;;;;;;5015132;28;20207;-70
2022/03/07 12:30:11;;;;;;;10.20;5.80;;;1.70;99.90;;;;;;5015015;28;20334;-69
2022/03/07 12:32:39;;;;;;;11.27;5.33;;;1.80;99.90;;;;;;5014581;28;20317;-69
2022/03/07 12:35:08;;;;;;;9.30;5.47;;;1.80;99.90;;;;;;5014836;28;20656;-69
2022/03/07 12:37:37;;;;;;;11.60;5.83;;;1.80;99.90;;;;;;5014891;28;20261;-69
2022/03/07 12:40:08;;;;;;;12.77;6.60;;;1.70;99.90;;;;;;5014843;28;20207;-70
2022/03/07 12:42:38;;;;;;;10.80;6.70;;;1.70;99.90;;;;;;5014544;28;20191;-68
2022/03/07 12:45:07;;;;;;;12.00;6.40;;;1.80;99.90;;;;;;5013593;28;20195;-68
2022/03/07 12:47:36;;;;;;;8.87;5.60;;;1.90;99.90;;;;;;5014647;28;20631;-68
2022/03/07 12:50:07;;;;;;;10.27;5.47;;;2.00;99.90;;;;;;5014648;28;20680;-69
2022/03/07 12:52:36;;;;;;;10.30;5.10;;;2.00;99.90;;;;;;5014379;28;20234;-68